createdAt,value
2019-05-14T00:03:30.993Z,8.30
2019-05-14T00:08:36.380Z,8.73
2019-05-14T00:13:42.368Z,9.83
2019-05-14T00:18:48.322Z,8.80
2019-05-14T00:23:54.086Z,9.07
2019-05-14T00:29:01.689Z,8.80
2019-05-14T00:34:07.594Z,9.13
2019-05-14T00:39:13.563Z,9.40
2019-05-14T00:44:21.515Z,10.88
2019-05-14T00:49:27.399Z,11.70
2019-05-14T00:54:33.228Z,10.83
2019-05-14T00:59:41.452Z,10.75
2019-05-14T01:04:46.916Z,9.10
2019-05-14T01:09:53.101Z,13.55
2019-05-14T01:15:07.825Z,12.47
2019-05-14T01:20:08.408Z,12.03
2019-05-14T01:25:14.486Z,12.13
2019-05-14T01:30:21.409Z,12.73
2019-05-14T01:35:27.593Z,11.30
2019-05-14T01:40:33.663Z,10.73
2019-05-14T01:45:41.739Z,9.87
2019-05-14T01:50:51.808Z,10.33
2019-05-14T01:55:57.331Z,9.57
2019-05-14T02:01:03.274Z,10.10
2019-05-14T02:06:09.243Z,10.63
2019-05-14T02:11:15.230Z,11.53
2019-05-14T02:16:21.939Z,11.93
2019-05-14T02:21:28.072Z,12.00
2019-05-14T02:26:34.064Z,12.00
2019-05-14T02:31:40.170Z,12.40
2019-05-14T02:36:49.420Z,13.63
2019-05-14T02:41:54.062Z,12.77
2019-05-14T02:47:00.011Z,12.47
2019-05-14T02:52:09.576Z,13.53
2019-05-14T02:57:13.800Z,13.03
2019-05-14T03:02:19.797Z,12.93
2019-05-14T03:07:26.104Z,13.73
2019-05-14T03:12:32.155Z,13.90
2019-05-14T03:17:40.496Z,14.13
2019-05-14T03:23:01.716Z,12.70
2019-05-14T03:27:53.871Z,14.30
2019-05-14T03:33:02.954Z,13.57
2019-05-14T03:38:09.477Z,13.57
2019-05-14T03:43:15.874Z,13.70
2019-05-14T03:48:21.935Z,14.67
2019-05-14T03:53:29.628Z,13.90
2019-05-14T03:58:35.351Z,14.23
2019-05-14T04:03:41.214Z,19.50
2019-05-14T04:08:49.731Z,19.05
2019-05-14T04:14:00.151Z,13.67
2019-05-14T04:19:09.994Z,15.37
2019-05-14T04:24:16.046Z,14.07
2019-05-14T04:29:23.444Z,12.77
2019-05-14T04:34:30.208Z,13.77
2019-05-14T04:39:39.514Z,14.20
2019-05-14T04:44:44.591Z,14.07
2019-05-14T04:49:50.955Z,14.37
2019-05-14T04:54:59.385Z,15.17
2019-05-14T05:00:05.086Z,16.63
2019-05-14T05:05:11.525Z,15.67
2019-05-14T05:10:19.261Z,15.97
2019-05-14T05:15:25.432Z,16.87
2019-05-14T05:20:32.543Z,16.27
2019-05-14T05:25:38.623Z,15.60
2019-05-14T05:30:44.838Z,16.43
2019-05-14T05:35:50.904Z,16.77
2019-05-14T05:40:59.980Z,17.27
2019-05-14T05:46:04.560Z,14.53
2019-05-14T05:51:10.786Z,14.57
2019-05-14T05:56:18.772Z,15.77
2019-05-14T06:01:41.202Z,13.73
2019-05-14T06:06:31.904Z,13.73
2019-05-14T06:11:40.592Z,12.93
2019-05-14T06:16:48.677Z,11.00
2019-05-14T06:21:54.265Z,10.13
2019-05-14T06:27:00.110Z,10.53
2019-05-14T06:32:06.144Z,9.77
2019-05-14T06:37:12.378Z,10.17
2019-05-14T06:42:19.275Z,9.73
2019-05-14T06:47:25.469Z,9.73
2019-05-14T06:52:31.335Z,10.03
2019-05-14T06:57:39.429Z,9.43
2019-05-14T07:02:45.133Z,8.73
2019-05-14T07:07:50.887Z,8.33
2019-05-14T07:12:59.064Z,6.87
2019-05-14T07:18:04.163Z,7.67
2019-05-14T07:23:09.840Z,5.03
2019-05-14T07:28:15.574Z,4.10
2019-05-14T07:33:21.368Z,4.20
2019-05-14T07:38:28.436Z,3.53
2019-05-14T07:43:34.414Z,4.37
2019-05-14T07:48:40.589Z,4.07
2019-05-14T07:53:48.536Z,3.47
2019-05-14T07:58:53.553Z,4.30
2019-05-14T08:04:00.164Z,3.60
2019-05-14T08:09:08.872Z,3.10
2019-05-14T08:14:14.568Z,3.20
2019-05-14T08:19:26.928Z,3.60
2019-05-14T08:24:30.085Z,3.02
2019-05-14T08:29:36.825Z,2.55
2019-05-14T08:34:42.215Z,2.90
2019-05-14T08:39:48.662Z,2.98
2019-05-14T08:44:56.112Z,1.92
2019-05-14T08:50:02.181Z,1.70
2019-05-14T08:55:12.987Z,1.77
2019-05-14T09:00:18.193Z,2.75
2019-05-14T09:05:23.606Z,2.62
2019-05-14T09:10:29.303Z,1.80
2019-05-14T09:15:34.970Z,2.02
2019-05-14T09:20:40.566Z,2.05
2019-05-14T09:25:49.227Z,2.10
2019-05-14T09:30:53.678Z,2.55
2019-05-14T09:36:11.003Z,1.77
2019-05-14T09:41:12.141Z,1.80
2019-05-14T09:46:14.164Z,1.30
2019-05-14T09:51:20.207Z,2.08
2019-05-14T09:56:25.863Z,2.05
2019-05-14T10:01:31.629Z,5.62
2019-05-14T10:06:39.200Z,1.85
2019-05-14T10:11:44.673Z,2.10
2019-05-14T10:16:50.287Z,1.67
2019-05-14T10:21:58.653Z,1.67
2019-05-14T10:27:03.824Z,1.22
2019-05-14T10:32:09.529Z,1.30
2019-05-14T10:37:15.312Z,1.70
2019-05-14T10:42:21.155Z,1.27
2019-05-14T10:47:29.215Z,1.10
2019-05-14T10:52:34.978Z,1.40
2019-05-14T10:57:41.044Z,1.32
2019-05-14T11:02:49.151Z,1.57
2019-05-14T11:07:54.829Z,2.02
2019-05-14T11:13:00.696Z,1.30
2019-05-14T11:18:08.689Z,1.62
2019-05-14T11:23:14.109Z,1.45
2019-05-14T11:28:20.160Z,1.57
2019-05-14T11:33:26.107Z,1.85
2019-05-14T11:38:37.236Z,1.20
2019-05-14T11:43:40.143Z,1.22
2019-05-14T11:48:48.686Z,1.60
2019-05-14T11:53:53.904Z,1.60
2019-05-14T11:59:00.841Z,1.42
2019-05-14T12:04:08.962Z,1.92
2019-05-14T12:09:14.494Z,2.00
2019-05-14T12:14:20.401Z,2.45
2019-05-14T12:19:28.388Z,2.30
2019-05-14T12:24:33.757Z,1.87
2019-05-14T12:29:40.124Z,2.22
2019-05-14T12:34:48.793Z,2.25
2019-05-14T12:39:53.954Z,2.42
2019-05-14T12:44:59.823Z,2.45
2019-05-14T12:50:06.422Z,2.30
2019-05-14T12:55:12.877Z,2.70
2019-05-14T13:00:19.267Z,3.12
2019-05-14T13:05:25.348Z,2.65
2019-05-14T13:10:31.430Z,3.20
2019-05-14T13:15:39.347Z,3.20
2019-05-14T13:20:44.924Z,2.72
2019-05-14T13:25:50.911Z,2.92
2019-05-14T13:30:59.496Z,3.60
2019-05-14T13:36:05.929Z,2.52
2019-05-14T13:41:11.996Z,2.50
2019-05-14T13:46:18.986Z,2.77
2019-05-14T13:51:29.284Z,2.67
2019-05-14T13:56:32.956Z,2.30
2019-05-14T14:01:39.153Z,2.77
2019-05-14T14:06:45.222Z,2.40
2019-05-14T14:11:51.292Z,2.62
2019-05-14T14:16:58.319Z,2.08
2019-05-14T14:22:04.603Z,3.08
2019-05-14T14:27:10.579Z,1.98
2019-05-14T14:32:18.867Z,2.50
2019-05-14T14:37:28.074Z,1.70
2019-05-14T14:42:35.817Z,2.98
2019-05-14T14:47:40.939Z,1.90
2019-05-14T14:52:49.440Z,1.87
2019-05-14T14:57:55.515Z,2.45
2019-05-14T15:03:01.724Z,2.37
2019-05-14T15:08:10.303Z,1.80
2019-05-14T15:13:17.904Z,2.62
2019-05-14T15:18:28.805Z,3.92
2019-05-14T15:23:38.977Z,1.67
2019-05-14T15:28:42.550Z,2.15
2019-05-14T15:33:50.852Z,3.55
2019-05-14T15:38:58.936Z,1.95
2019-05-14T15:44:04.112Z,1.62
2019-05-14T15:49:09.889Z,2.20
2019-05-14T15:54:35.057Z,1.82
2019-05-14T15:59:23.497Z,2.52
2019-05-14T16:04:29.356Z,1.95
2019-05-14T16:09:35.461Z,1.62
2019-05-14T16:14:41.393Z,2.45
2019-05-14T16:19:48.717Z,2.72
2019-05-14T16:24:57.051Z,1.72
2019-05-14T16:30:02.395Z,2.17
2019-05-14T16:35:09.159Z,2.17
2019-05-14T16:40:15.674Z,2.12
2019-05-14T16:45:21.849Z,2.08
2019-05-14T16:50:28.694Z,2.10
2019-05-14T16:55:34.845Z,2.37
2019-05-14T17:00:40.838Z,1.57
2019-05-14T17:05:48.708Z,1.50
2019-05-14T17:10:54.377Z,1.98
2019-05-14T17:16:01.274Z,1.77
2019-05-14T17:21:09.240Z,1.90
2019-05-14T17:26:15.201Z,2.45
2019-05-14T17:31:21.143Z,1.95
2019-05-14T17:36:28.282Z,1.82
2019-05-14T17:41:34.261Z,2.02
2019-05-14T17:46:40.299Z,2.15
2019-05-14T17:51:48.415Z,1.75
2019-05-14T17:56:54.015Z,1.95
2019-05-14T18:02:00.290Z,1.98
2019-05-14T18:07:08.384Z,1.80
2019-05-14T18:12:18.517Z,1.77
2019-05-14T18:17:23.817Z,1.40
2019-05-14T18:22:30.210Z,1.45
2019-05-14T18:27:39.030Z,2.00
2019-05-14T18:32:48.595Z,1.20
2019-05-14T18:37:54.014Z,1.98
2019-05-14T18:43:00.197Z,1.40
2019-05-14T18:48:08.510Z,1.67
2019-05-14T18:53:14.998Z,2.08
2019-05-14T18:58:21.082Z,1.57
2019-05-14T19:03:28.575Z,2.15
2019-05-14T19:08:34.751Z,1.60
2019-05-14T19:13:40.841Z,2.00
2019-05-14T19:18:48.908Z,1.62
2019-05-14T19:23:54.565Z,1.55
2019-05-14T19:29:00.609Z,1.42
2019-05-14T19:34:08.465Z,1.15
2019-05-14T19:39:14.550Z,1.37
2019-05-14T19:44:20.654Z,1.52
2019-05-14T19:49:28.761Z,1.60
2019-05-14T19:54:34.515Z,1.90
2019-05-14T19:59:40.462Z,1.40
2019-05-14T20:04:46.489Z,1.90
2019-05-14T20:09:52.498Z,1.72
2019-05-14T20:14:58.445Z,1.72
2019-05-14T20:20:04.537Z,1.72
2019-05-14T20:25:11.122Z,1.90
2019-05-14T20:30:18.834Z,1.65
2019-05-14T20:35:31.801Z,2.47
2019-05-14T20:40:32.531Z,3.40
2019-05-14T20:45:39.143Z,2.50
2019-05-14T20:50:45.181Z,2.22
2019-05-14T20:55:51.282Z,2.75
2019-05-14T21:01:00.048Z,1.90
2019-05-14T21:06:06.039Z,2.20
2019-05-14T21:11:12.040Z,1.70
2019-05-14T21:16:18.229Z,2.10
2019-05-14T21:21:24.128Z,1.80
2019-05-14T21:26:30.081Z,2.40
2019-05-14T21:31:38.343Z,2.67
2019-05-14T21:36:46.137Z,2.62
2019-05-14T21:41:52.253Z,3.22
2019-05-14T21:46:58.997Z,3.20
2019-05-14T21:52:05.099Z,3.40
2019-05-14T21:57:11.752Z,3.30
2019-05-14T22:02:27.492Z,4.85
2019-05-14T22:07:40.964Z,5.08
2019-05-14T22:13:05.661Z,4.37
2019-05-14T22:18:20.092Z,6.25
2019-05-14T22:23:48.097Z,5.25
2019-05-14T22:28:48.603Z,5.83
2019-05-14T22:34:03.675Z,5.97
2019-05-14T22:39:28.984Z,6.40
2019-05-14T22:44:51.118Z,6.58
2019-05-14T22:50:10.959Z,6.75
2019-05-14T22:55:31.411Z,6.80
2019-05-14T23:01:12.777Z,7.72
2019-05-14T23:06:00.556Z,7.92
2019-05-14T23:11:08.497Z,6.87
2019-05-14T23:16:14.127Z,7.13
2019-05-14T23:21:20.526Z,6.87
2019-05-14T23:26:28.554Z,7.20
2019-05-14T23:31:35.268Z,7.47
2019-05-14T23:36:41.365Z,8.08
2019-05-14T23:41:48.711Z,8.03
2019-05-14T23:46:54.801Z,8.20
2019-05-14T23:52:00.775Z,8.03
2019-05-14T23:57:08.741Z,8.85
